Time;durP1;ratioP1;P1;durP2;ratioP2;P2;SDS_P1;SDS_P2;PMS_P1;PMS_P2;Temp;Humidity;BMP_temperature;BMP_pressure;BME280_temperature;BME280_humidity;BME280_pressure;Samples;Min_cycle;Max_cycle;Signal;HPM_P1;HPM_P2
2021/10/03 10:37:29;;;;;;;;;;;;;;;17.63;76.53;99364.63;4963325;27;12292;-61
2021/10/03 10:39:54;;;;;;;;;;;;;;;17.44;77.50;99365.94;4968654;28;1252;-63
2021/10/03 10:42:19;;;;;;;;;;;;;;;17.37;78.54;99351.53;4980466;28;1412;-62
2021/10/03 10:44:44;;;;;;;;;;;;;;;17.36;78.99;99357.94;4967001;28;1404;-62
2021/10/03 10:47:09;;;;;;;;;;;;;;;17.34;78.66;99359.97;4969070;28;1363;-65
2021/10/03 10:49:38;;;;;;;;;;;;;;;17.32;79.49;99375.47;4970417;28;863;-62
2021/10/03 10:52:03;;;;;;;;;;;;;;;17.27;79.03;99372.47;5026926;28;1950;-61
2021/10/03 10:54:28;;;;;;;;;;;;;;;17.25;79.30;99380.72;5071931;28;1005;-62
2021/10/03 10:56:53;;;;;;;;;;;;;;;17.25;79.48;99420.25;5037986;28;1906;-62
2021/10/03 10:59:18;;;;;;;;;;;;;;;17.23;79.37;99433.06;4968732;28;1650;-61
2021/10/03 11:01:43;;;;;;;;;;;;;;;17.21;80.28;99419.78;4978535;28;1639;-63
2021/10/03 11:04:09;;;;;;;;;;;;;;;17.21;80.39;99408.16;4969132;28;1339;-61
2021/10/03 11:06:35;;;;;;;;;;;;;;;17.22;79.81;99410.69;4968767;28;1396;-61
2021/10/03 11:09:00;;;;;;;;;;;;;;;17.20;80.19;99418.09;4969093;28;1395;-62
2021/10/03 11:11:25;;;;;;;;;;;;;;;17.21;80.35;99421.63;4981752;28;1554;-62
2021/10/03 11:13:50;;;;;;;;;;;;;;;17.20;80.31;99428.03;4968863;28;1522;-62
2021/10/03 11:16:15;;;;;;;;;;;;;;;17.20;80.44;99425.31;4968860;28;1962;-62
2021/10/03 11:18:40;;;;;;;;;;;;;;;17.19;80.56;99426.38;4969230;28;1336;-61
2021/10/03 11:21:05;;;;;;;;;;;;;;;17.19;80.77;99429.06;4978861;28;1746;-62
2021/10/03 11:23:30;;;;;;;;;;;;;;;17.20;80.80;99423.47;4981924;28;1979;-61
2021/10/03 11:25:55;;;;;;;;;;;;;;;17.19;80.33;99442.53;4969529;28;1785;-61
2021/10/03 11:28:20;;;;;;;;;;;;;;;17.18;80.51;99447.06;4969383;28;1643;-61
2021/10/03 11:30:48;;;;;;;;;;;;;;;17.17;80.46;99450.78;4995067;28;1982;-62
2021/10/03 11:33:13;;;;;;;;;;;;;;;17.18;80.84;99428.22;4969189;28;1625;-61
2021/10/03 11:35:38;;;;;;;;;;;;;;;17.17;80.43;99429.25;4969013;28;2024;-61
2021/10/03 11:38:03;;;;;;;;;;;;;;;17.18;81.31;99441.69;4967935;28;725;-61
2021/10/03 11:40:31;;;;;;;;;;;;;;;17.17;81.01;99440.00;5021250;28;1772;-61
2021/10/03 11:42:56;;;;;;;;;;;;;;;17.17;81.09;99458.84;5071115;28;791;-61
2021/10/03 11:45:23;;;;;;;;;;;;;;;17.17;80.89;99449.94;5070843;28;1067;-61
2021/10/03 11:47:48;;;;;;;;;;;;;;;17.16;81.14;99449.09;5062904;28;1763;-61
2021/10/03 11:50:13;;;;;;;;;;;;;;;17.15;80.73;99442.03;5012240;28;1997;-61
2021/10/03 11:52:38;;;;;;;;;;;;;;;17.16;81.06;99432.09;4954963;28;1268;-62
2021/10/03 11:55:03;;;;;;;;;;;;;;;17.17;81.09;99433.78;4955824;28;1910;-61
2021/10/03 11:57:29;;;;;;;;;;;;;;;17.15;81.51;99441.19;4955832;28;1546;-61
2021/10/03 11:59:54;;;;;;;;;;;;;;;17.16;81.27;99464.41;4974387;28;1708;-62
2021/10/03 12:02:19;;;;;;;;;;;;;;;17.17;81.19;99479.53;4956148;28;1534;-62
2021/10/03 12:04:44;;;;;;;;;;;;;;;17.16;81.11;99507.47;4955961;28;1630;-62
2021/10/03 12:07:09;;;;;;;;;;;;;;;17.14;81.39;99520.28;4954725;28;1928;-62
2021/10/03 12:09:36;;;;;;;;;;;;;;;17.12;81.01;99516.91;4961070;28;1565;-62
2021/10/03 12:12:01;;;;;;;;;;;;;;;17.12;81.15;99522.28;4955547;28;1406;-59
2021/10/03 12:14:26;;;;;;;;;;;;;;;17.10;80.99;99530.53;4955779;28;1621;-59
2021/10/03 12:16:52;;;;;;;;;;;;;;;17.10;81.03;99540.47;4955430;28;1898;-62
2021/10/03 12:19:17;;;;;;;;;;;;;;;17.09;81.01;99538.78;4963547;28;1899;-59
2021/10/03 12:21:42;;;;;;;;;;;;;;;17.08;80.28;99545.19;4955469;28;1715;-62
2021/10/03 12:24:08;;;;;;;;;;;;;;;17.15;80.12;99573.09;4955769;28;1696;-62
2021/10/03 12:26:33;;;;;;;;;;;;;;;17.14;80.42;99590.25;4955164;28;1629;-62
2021/10/03 12:28:58;;;;;;;;;;;;;;;17.14;80.00;99595.66;4968233;28;1581;-62
2021/10/03 12:31:23;;;;;;;;;;;;;;;17.14;80.79;99592.94;4958225;28;1463;-62
2021/10/03 12:33:48;;;;;;;;;;;;;;;17.14;80.54;99611.81;4954752;28;1391;-62
2021/10/03 12:36:13;;;;;;;;;;;;;;;17.14;80.70;99604.56;4955079;28;1911;-61
2021/10/03 12:38:38;;;;;;;;;;;;;;;17.12;80.67;99609.28;4972428;28;1605;-61
2021/10/03 12:41:03;;;;;;;;;;;;;;;17.14;80.48;99618.03;4955535;28;1600;-60
2021/10/03 12:43:28;;;;;;;;;;;;;;;17.14;80.83;99606.41;4955806;28;799;-60
2021/10/03 12:45:53;;;;;;;;;;;;;;;17.16;81.38;99585.56;4955880;28;1883;-59
2021/10/03 12:48:18;;;;;;;;;;;;;;;17.18;80.38;99575.44;4979076;28;1943;-60
2021/10/03 12:50:44;;;;;;;;;;;;;;;17.18;80.68;99576.28;4979878;28;1546;-60
2021/10/03 12:53:09;;;;;;;;;;;;;;;17.19;81.10;99593.28;4955301;28;1629;-60
2021/10/03 12:55:34;;;;;;;;;;;;;;;17.19;80.70;99585.22;4954907;28;1898;-60
2021/10/03 12:57:59;;;;;;;;;;;;;;;17.19;80.73;99617.50;4962656;28;1631;-60
2021/10/03 13:00:24;;;;;;;;;;;;;;;17.18;80.35;99622.06;4958304;28;1740;-60
2021/10/03 13:02:51;;;;;;;;;;;;;;;17.17;80.90;99619.53;4955319;28;1639;-60
2021/10/03 13:05:19;;;;;;;;;;;;;;;17.17;80.92;99614.16;4955644;28;921;-60
2021/10/03 13:07:44;;;;;;;;;;;;;;;17.15;80.84;99622.41;5019211;28;1907;-60
2021/10/03 13:10:09;;;;;;;;;;;;;;;17.15;80.94;99630.47;5056222;28;1920;-60
2021/10/03 13:12:34;;;;;;;;;;;;;;;17.16;81.02;99653.69;5056359;28;862;-60
2021/10/03 13:14:59;;;;;;;;;;;;;;;17.16;80.34;99674.38;4958149;28;1508;-60
2021/10/03 13:17:24;;;;;;;;;;;;;;;17.16;80.76;99677.09;4985507;28;1957;-60
2021/10/03 13:22:21;;;;;;;;;;;;;;;17.15;80.04;99683.47;5112070;27;1602;-61
2021/10/03 13:24:46;;;;;;;;;;;;;;;17.16;80.29;99702.16;5101946;28;1591;-62
2021/10/03 13:27:11;;;;;;;;;;;;;;;17.16;80.01;99690.53;5104663;28;1618;-60
2021/10/03 13:29:36;;;;;;;;;;;;;;;17.16;80.24;99706.69;5103265;28;1702;-61
2021/10/03 13:32:01;;;;;;;;;;;;;;;17.17;80.29;99698.44;5103455;28;1765;-61
2021/10/03 13:34:27;;;;;;;;;;;;;;;17.18;80.44;99715.44;5098046;28;1727;-61
2021/10/03 13:36:52;;;;;;;;;;;;;;;17.18;80.80;99720.84;5100026;28;1694;-61
2021/10/03 13:39:17;;;;;;;;;;;;;;;17.18;79.85;99724.38;5101047;28;1599;-61
2021/10/03 13:41:42;;;;;;;;;;;;;;;17.17;80.44;99717.28;5101844;28;1910;-61
2021/10/03 13:44:07;;;;;;;;;;;;;;;17.19;80.70;99722.50;5106243;28;1441;-61
2021/10/03 13:46:32;;;;;;;;;;;;;;;17.19;80.45;99731.44;5108449;28;1608;-63
2021/10/03 13:48:58;;;;;;;;;;;;;;;17.18;80.80;99739.69;5107422;28;1362;-61
2021/10/03 13:51:23;;;;;;;;;;;;;;;17.19;80.34;99754.81;5107224;28;1318;-61
2021/10/03 13:53:48;;;;;;;;;;;;;;;17.19;80.46;99738.66;5102147;28;1503;-61
2021/10/03 13:56:13;;;;;;;;;;;;;;;17.19;80.14;99730.59;5101917;28;1366;-61
2021/10/03 13:58:38;;;;;;;;;;;;;;;17.18;80.07;99723.53;5100856;28;2053;-61
2021/10/03 14:01:03;;;;;;;;;;;;;;;17.18;80.25;99731.59;5094819;28;1949;-61
2021/10/03 14:03:28;;;;;;;;;;;;;;;17.17;80.15;99738.84;5091905;28;854;-61
2021/10/03 14:05:53;;;;;;;;;;;;;;;17.17;80.34;99754.16;5091529;28;1989;-61
2021/10/03 14:08:19;;;;;;;;;;;;;;;17.17;80.10;99749.59;5091638;28;846;-61
2021/10/03 14:10:44;;;;;;;;;;;;;;;17.18;80.07;99758.53;5092300;28;1079;-61
2021/10/03 14:13:09;;;;;;;;;;;;;;;17.17;80.03;99756.84;5092045;28;934;-61
2021/10/03 14:15:34;;;;;;;;;;;;;;;17.16;80.16;99756.00;5095107;28;1641;-61
2021/10/03 14:18:02;;;;;;;;;;;;;;;17.16;80.42;99753.31;5096093;28;1401;-61
2021/10/03 14:20:33;;;;;;;;;;;;;;;17.17;80.09;99746.06;5098133;28;1977;-61
2021/10/03 14:22:58;;;;;;;;;;;;;;;17.15;80.04;99759.69;5092653;28;1484;-62
2021/10/03 14:25:23;;;;;;;;;;;;;;;17.17;79.87;99770.31;5102546;28;1809;-61
2021/10/03 14:27:48;;;;;;;;;;;;;;;17.17;79.99;99773.84;5108508;28;1270;-61
2021/10/03 14:30:13;;;;;;;;;;;;;;;17.18;80.07;99791.66;5101230;28;1267;-61
2021/10/03 14:32:38;;;;;;;;;;;;;;;17.19;80.04;99803.28;5098473;28;1520;-61
2021/10/03 14:35:03;;;;;;;;;;;;;;;17.20;79.68;99796.88;5086236;28;1633;-61
2021/10/03 14:37:29;;;;;;;;;;;;;;;17.20;80.20;99795.00;5084539;28;1733;-62
2021/10/03 14:39:54;;;;;;;;;;;;;;;17.21;79.34;99807.47;5088486;28;1399;-61
2021/10/03 14:42:19;;;;;;;;;;;;;;;17.22;79.54;99808.31;5086545;28;1972;-61
2021/10/03 14:44:44;;;;;;;;;;;;;;;17.24;79.43;99811.69;5082146;28;1780;-61
2021/10/03 14:47:09;;;;;;;;;;;;;;;17.31;79.59;99823.47;5088007;28;1968;-60
2021/10/03 14:49:34;;;;;;;;;;;;;;;17.31;79.38;99826.16;5092042;28;1618;-59
2021/10/03 14:52:00;;;;;;;;;;;;;;;17.41;79.78;99828.69;5098161;28;897;-59
2021/10/03 14:54:25;;;;;;;;;;;;;;;17.56;79.71;99848.53;5098346;28;913;-58
2021/10/03 14:56:50;;;;;;;;;;;;;;;17.52;79.79;99841.84;5081607;28;2112;-58
2021/10/03 14:59:15;;;;;;;;;;;;;;;17.41;80.50;99850.22;5077788;28;988;-58
2021/10/03 15:01:40;;;;;;;;;;;;;;;17.36;80.16;99848.06;5077570;28;1890;-58
2021/10/03 15:04:05;;;;;;;;;;;;;;;17.31;80.25;99862.03;5077330;28;2089;-58
2021/10/03 15:06:30;;;;;;;;;;;;;;;17.30;80.02;99872.97;5077899;28;897;-58
2021/10/03 15:08:57;;;;;;;;;;;;;;;17.28;80.55;99869.59;5076176;28;1348;-58
2021/10/03 15:11:22;;;;;;;;;;;;;;;17.25;80.60;99884.22;5077582;28;912;-59
2021/10/03 15:13:47;;;;;;;;;;;;;;;17.25;80.90;99888.75;5077345;28;1962;-58
2021/10/03 15:16:12;;;;;;;;;;;;;;;17.25;80.20;99894.16;5076977;28;2003;-58
2021/10/03 15:18:40;;;;;;;;;;;;;;;17.24;80.40;99905.91;5077061;28;2075;-58
2021/10/03 15:21:05;;;;;;;;;;;;;;;17.23;80.47;99913.16;5075706;28;2244;-58
2021/10/03 15:23:30;;;;;;;;;;;;;;;17.23;80.90;99917.69;5076550;28;2004;-58
2021/10/03 15:25:55;;;;;;;;;;;;;;;17.22;80.62;99932.16;5076634;28;1975;-58
2021/10/03 15:28:20;;;;;;;;;;;;;;;17.25;80.78;99948.00;5080593;28;1583;-58
2021/10/03 15:30:45;;;;;;;;;;;;;;;17.26;79.76;99964.00;5081122;28;1619;-57
2021/10/03 15:33:10;;;;;;;;;;;;;;;17.25;80.36;99969.53;5076905;28;937;-58
2021/10/03 15:35:36;;;;;;;;;;;;;;;17.23;80.32;99983.16;5079503;28;1942;-58
2021/10/03 15:38:01;;;;;;;;;;;;;;;17.24;80.76;100003.69;5090130;28;1619;-58
2021/10/03 15:40:27;;;;;;;;;;;;;;;17.22;80.00;100016.47;5085704;28;1969;-58
2021/10/03 15:42:53;;;;;;;;;;;;;;;17.22;80.16;100012.94;5087497;28;1698;-59
2021/10/03 15:45:18;;;;;;;;;;;;;;;17.21;80.63;100028.25;5084395;28;1595;-58
2021/10/03 15:47:43;;;;;;;;;;;;;;;17.22;80.13;100037.19;5082940;28;1386;-57
2021/10/03 15:50:08;;;;;;;;;;;;;;;17.21;80.48;100038.19;5078168;28;2023;-57
2021/10/03 15:52:33;;;;;;;;;;;;;;;17.21;80.51;100032.78;5093013;28;1319;-59
2021/10/03 15:54:58;;;;;;;;;;;;;;;17.20;79.85;100037.34;5096838;28;953;-58
2021/10/03 15:57:23;;;;;;;;;;;;;;;17.22;80.05;100043.41;5083388;28;2003;-58
2021/10/03 15:59:48;;;;;;;;;;;;;;;17.21;80.20;100044.41;5075829;28;1087;-57
2021/10/03 16:02:14;;;;;;;;;;;;;;;17.22;80.05;100053.34;5076348;28;2093;-58
2021/10/03 16:04:39;;;;;;;;;;;;;;;17.23;79.66;100041.56;5076274;28;857;-58
2021/10/03 16:07:04;;;;;;;;;;;;;;;17.22;79.90;100042.56;5076046;28;1978;-58
2021/10/03 16:09:29;;;;;;;;;;;;;;;17.24;80.07;100043.25;5085600;28;1700;-58
2021/10/03 16:11:54;;;;;;;;;;;;;;;17.25;79.96;100026.09;5092731;28;1767;-58
2021/10/03 16:14:19;;;;;;;;;;;;;;;17.25;79.41;100026.94;5086756;28;1574;-59
2021/10/03 16:16:44;;;;;;;;;;;;;;;17.24;79.93;100029.78;5084257;28;1806;-58
2021/10/03 16:19:09;;;;;;;;;;;;;;;17.27;79.40;100032.16;5082286;28;1626;-60
2021/10/03 16:21:34;;;;;;;;;;;;;;;17.25;79.28;100035.00;5082970;28;1977;-59
2021/10/03 16:24:00;;;;;;;;;;;;;;;17.23;79.38;100036.19;5078974;28;2298;-58
2021/10/03 16:26:25;;;;;;;;;;;;;;;17.26;79.51;100046.63;5076677;28;1686;-59
2021/10/03 16:28:50;;;;;;;;;;;;;;;17.27;78.83;100048.31;5084273;28;1681;-57
2021/10/03 16:31:15;;;;;;;;;;;;;;;17.24;78.94;100054.03;5094795;28;1977;-58
2021/10/03 16:33:40;;;;;;;;;;;;;;;17.24;79.09;100065.63;5087150;28;1701;-57
2021/10/03 16:36:05;;;;;;;;;;;;;;;17.24;78.86;100094.41;5075801;28;1650;-58
2021/10/03 16:38:30;;;;;;;;;;;;;;;17.25;79.09;100105.03;5075097;28;1196;-58
2021/10/03 16:40:55;;;;;;;;;;;;;;;17.27;79.19;100104.88;5075479;28;1955;-58
2021/10/03 16:43:20;;;;;;;;;;;;;;;17.27;79.16;100121.88;5075110;28;1852;-58
2021/10/03 16:45:47;;;;;;;;;;;;;;;17.30;78.42;100112.63;5075702;28;897;-59
2021/10/03 16:48:12;;;;;;;;;;;;;;;17.29;78.59;100113.63;5075702;28;813;-58
2021/10/03 16:50:37;;;;;;;;;;;;;;;17.28;78.53;100122.72;5080922;28;1703;-58
2021/10/03 16:53:02;;;;;;;;;;;;;;;17.27;78.51;100129.94;5084085;28;1698;-59
2021/10/03 16:55:28;;;;;;;;;;;;;;;17.28;78.72;100144.25;5080010;28;2607;-58
2021/10/03 16:57:53;;;;;;;;;;;;;;;17.26;78.96;100157.03;5077556;28;1868;-59
2021/10/03 17:00:18;;;;;;;;;;;;;;;17.24;78.54;100150.97;5093390;28;1901;-58
2021/10/03 17:02:43;;;;;;;;;;;;;;;17.26;78.09;100157.03;5095191;28;822;-58
2021/10/03 17:05:08;;;;;;;;;;;;;;;17.25;78.39;100176.88;5076884;28;1847;-61
2021/10/03 17:07:33;;;;;;;;;;;;;;;17.23;78.09;100181.59;5074611;28;1382;-57
2021/10/03 17:09:58;;;;;;;;;;;;;;;17.24;78.26;100194.91;5074143;28;1383;-58
2021/10/03 17:12:24;;;;;;;;;;;;;;;17.23;78.07;100205.81;5074128;28;1475;-58
2021/10/03 17:14:49;;;;;;;;;;;;;;;17.21;78.30;100203.28;5076431;28;1944;-59
2021/10/03 17:17:14;;;;;;;;;;;;;;;17.22;78.33;100202.28;5081148;28;1469;-59
2021/10/03 17:19:39;;;;;;;;;;;;;;;17.22;77.75;100212.19;5088459;28;1583;-59
2021/10/03 17:22:04;;;;;;;;;;;;;;;17.20;77.57;100214.22;5081842;28;1977;-58
2021/10/03 17:24:29;;;;;;;;;;;;;;;17.22;77.82;100220.28;5074623;28;1892;-58
2021/10/03 17:26:54;;;;;;;;;;;;;;;17.26;77.90;100224.34;5074833;28;1701;-58
2021/10/03 17:29:19;;;;;;;;;;;;;;;17.28;78.24;100233.13;5075163;28;988;-58
2021/10/03 17:31:44;;;;;;;;;;;;;;;17.29;78.34;100229.44;5074594;28;1309;-58
2021/10/03 17:34:09;;;;;;;;;;;;;;;17.27;78.54;100236.81;5073906;28;1712;-59
2021/10/03 17:36:34;;;;;;;;;;;;;;;17.25;77.89;100249.59;5073785;28;1505;-59
2021/10/03 17:38:59;;;;;;;;;;;;;;;17.23;78.31;100252.44;5074163;28;1655;-59
2021/10/03 17:41:25;;;;;;;;;;;;;;;17.24;78.50;100266.75;5073812;28;2002;-56
2021/10/03 17:43:50;;;;;;;;;;;;;;;17.24;78.16;100266.75;5073832;28;1431;-58
2021/10/03 17:46:15;;;;;;;;;;;;;;;17.25;78.32;100287.28;5076791;28;1439;-58
2021/10/03 17:48:40;;;;;;;;;;;;;;;17.25;77.88;100288.13;5073463;28;1538;-58
2021/10/03 17:51:09;;;;;;;;;;;;;;;17.22;78.16;100283.06;5077586;28;1511;-57
2021/10/03 17:53:34;;;;;;;;;;;;;;;17.22;78.06;100282.22;5073362;28;1427;-58
2021/10/03 17:55:59;;;;;;;;;;;;;;;17.21;77.94;100281.38;5072875;28;2266;-58
2021/10/03 17:58:24;;;;;;;;;;;;;;;17.20;77.82;100289.59;5071598;28;2140;-57
2021/10/03 18:00:49;;;;;;;;;;;;;;;17.18;78.11;100299.72;5070408;28;1898;-58
2021/10/03 18:03:16;;;;;;;;;;;;;;;17.18;78.35;100302.41;5061741;28;2029;-57
2021/10/03 18:05:41;;;;;;;;;;;;;;;17.17;77.69;100311.47;5066227;28;2186;-57
2021/10/03 18:08:06;;;;;;;;;;;;;;;17.17;77.69;100311.47;5064195;28;1995;-57
2021/10/03 18:10:31;;;;;;;;;;;;;;;17.16;77.75;100324.09;5058533;28;1730;-57
2021/10/03 18:12:56;;;;;;;;;;;;;;;17.15;78.17;100333.19;5073401;28;1604;-57
2021/10/03 18:15:23;;;;;;;;;;;;;;;17.15;77.53;100338.56;5078950;28;1771;-58
2021/10/03 18:17:48;;;;;;;;;;;;;;;17.14;78.30;100349.47;5077528;28;1626;-57
2021/10/03 18:20:13;;;;;;;;;;;;;;;17.13;77.83;100350.47;5074320;28;1969;-57
2021/10/03 18:22:38;;;;;;;;;;;;;;;17.13;78.25;100354.03;5082867;28;1690;-58
2021/10/03 18:25:03;;;;;;;;;;;;;;;17.13;77.91;100367.47;5079511;28;1634;-58
2021/10/03 18:27:28;;;;;;;;;;;;;;;17.12;78.09;100367.63;5082423;28;1608;-58
2021/10/03 18:29:54;;;;;;;;;;;;;;;17.11;78.06;100365.94;5079644;28;1639;-58
2021/10/03 18:32:19;;;;;;;;;;;;;;;17.10;77.89;100367.78;5086373;28;2175;-57
2021/10/03 18:34:44;;;;;;;;;;;;;;;17.10;77.77;100369.63;5075700;28;1617;-58
2021/10/03 18:37:09;;;;;;;;;;;;;;;17.09;77.96;100376.00;5077170;28;1625;-58
2021/10/03 18:39:34;;;;;;;;;;;;;;;17.10;78.08;100377.69;5077156;28;1940;-58
2021/10/03 18:41:59;;;;;;;;;;;;;;;17.08;77.86;100383.25;5077163;28;1925;-58
2021/10/03 18:44:24;;;;;;;;;;;;;;;17.09;77.50;100402.94;5079999;28;1868;-58
2021/10/03 18:46:50;;;;;;;;;;;;;;;17.09;77.84;100416.41;5077022;28;1700;-58
2021/10/03 18:49:15;;;;;;;;;;;;;;;17.08;77.52;100428.16;5076645;28;1627;-57
2021/10/03 18:51:40;;;;;;;;;;;;;;;17.07;77.40;100411.16;5082143;28;1711;-58
2021/10/03 18:54:05;;;;;;;;;;;;;;;17.07;77.72;100413.00;5081037;28;1629;-58
2021/10/03 18:56:30;;;;;;;;;;;;;;;17.06;77.68;100422.94;5077069;28;1890;-58
2021/10/03 18:58:56;;;;;;;;;;;;;;;17.06;77.84;100405.91;5076815;28;2022;-59
2021/10/03 19:01:21;;;;;;;;;;;;;;;17.07;77.87;100421.94;5079745;28;1953;-58
2021/10/03 19:03:46;;;;;;;;;;;;;;;17.09;77.69;100437.94;5064351;28;1714;-58
2021/10/03 19:06:11;;;;;;;;;;;;;;;17.08;77.61;100452.38;5072087;28;1978;-59
2021/10/03 19:08:36;;;;;;;;;;;;;;;17.09;77.35;100456.78;5067902;28;2007;-59
2021/10/03 19:11:01;;;;;;;;;;;;;;;17.08;77.57;100452.38;5062848;28;1843;-58
2021/10/03 19:13:26;;;;;;;;;;;;;;;17.06;78.11;100449.00;5069844;28;1507;-58
2021/10/03 19:15:51;;;;;;;;;;;;;;;17.05;77.58;100458.06;5072119;28;1571;-57
2021/10/03 19:18:22;;;;;;;;;;;;;;;17.05;77.76;100458.06;5078873;28;2451;-58
2021/10/03 19:20:47;;;;;;;;;;;;;;;17.04;77.76;100461.75;5076564;28;1976;-58
2021/10/03 19:23:12;;;;;;;;;;;;;;;17.02;77.64;100460.06;5076200;28;1862;-59
2021/10/03 19:25:37;;;;;;;;;;;;;;;17.02;77.93;100470.84;5071838;28;1566;-59
2021/10/03 19:28:02;;;;;;;;;;;;;;;17.02;77.43;100471.84;5074489;28;1497;-58
2021/10/03 19:30:27;;;;;;;;;;;;;;;17.00;77.72;100485.47;5068128;28;1361;-58
2021/10/03 19:32:52;;;;;;;;;;;;;;;17.02;77.88;100477.25;5071322;28;1788;-59
2021/10/03 19:35:18;;;;;;;;;;;;;;;17.00;77.95;100472.84;5066796;28;1740;-59
2021/10/03 19:37:43;;;;;;;;;;;;;;;17.00;77.65;100489.00;5069723;28;1282;-59
2021/10/03 19:40:08;;;;;;;;;;;;;;;17.00;77.75;100501.63;5066298;28;1358;-58
2021/10/03 19:42:33;;;;;;;;;;;;;;;16.99;77.44;100508.00;5069023;28;1893;-58
2021/10/03 19:44:58;;;;;;;;;;;;;;;16.98;77.25;100507.16;5070413;28;1866;-58
2021/10/03 19:47:23;;;;;;;;;;;;;;;16.97;77.34;100507.28;5061034;28;1544;-60
2021/10/03 19:49:49;;;;;;;;;;;;;;;16.96;77.54;100511.84;5065972;28;1654;-58
2021/10/03 19:52:14;;;;;;;;;;;;;;;16.96;77.52;100525.28;5065110;28;1595;-59
2021/10/03 19:54:39;;;;;;;;;;;;;;;16.96;77.30;100519.91;5073575;28;1653;-59
2021/10/03 19:57:04;;;;;;;;;;;;;;;16.96;77.46;100519.91;5058772;28;1799;-58
2021/10/03 19:59:29;;;;;;;;;;;;;;;16.95;77.67;100539.75;5057461;28;1435;-59
2021/10/03 20:01:54;;;;;;;;;;;;;;;16.95;77.79;100531.66;5061949;28;1907;-58
2021/10/03 20:04:20;;;;;;;;;;;;;;;16.94;77.08;100511.13;5062301;28;1705;-59
2021/10/03 20:06:45;;;;;;;;;;;;;;;16.93;77.28;100520.19;5064275;28;1354;-58
2021/10/03 20:09:10;;;;;;;;;;;;;;;16.93;77.29;100522.88;5060906;28;1370;-57
2021/10/03 20:11:37;;;;;;;;;;;;;;;16.92;77.32;100513.13;5065608;28;1439;-57
2021/10/03 20:14:02;;;;;;;;;;;;;;;16.91;77.25;100522.19;5066471;28;1315;-59
2021/10/03 20:16:27;;;;;;;;;;;;;;;16.91;77.35;100514.09;5061216;28;1513;-59
2021/10/03 20:18:52;;;;;;;;;;;;;;;16.92;77.31;100531.09;5059754;28;1569;-59
2021/10/03 20:21:17;;;;;;;;;;;;;;;16.91;77.00;100537.50;5058073;28;1967;-59
2021/10/03 20:23:42;;;;;;;;;;;;;;;16.90;77.30;100538.47;5056750;28;1354;-58
2021/10/03 20:26:07;;;;;;;;;;;;;;;16.90;77.30;100542.03;5060513;28;1483;-59
2021/10/03 20:28:32;;;;;;;;;;;;;;;16.89;77.05;100543.00;5065368;28;2247;-59
2021/10/03 20:30:57;;;;;;;;;;;;;;;16.89;76.65;100529.56;5063404;28;1716;-59
2021/10/03 20:33:23;;;;;;;;;;;;;;;16.90;77.00;100552.78;5060405;28;1480;-58
2021/10/03 20:35:48;;;;;;;;;;;;;;;16.89;76.92;100556.47;5060870;28;1349;-59
2021/10/03 20:38:14;;;;;;;;;;;;;;;16.87;76.96;100553.06;5062018;28;1607;-57
2021/10/03 20:40:39;;;;;;;;;;;;;;;16.88;76.63;100554.78;5064444;28;1955;-59
2021/10/03 20:43:04;;;;;;;;;;;;;;;16.89;76.84;100583.38;5062755;28;1375;-59
2021/10/03 20:45:29;;;;;;;;;;;;;;;16.88;76.90;100573.63;5068082;28;1530;-59
2021/10/03 20:47:54;;;;;;;;;;;;;;;16.87;76.72;100574.59;5065930;28;1448;-59
2021/10/03 20:50:19;;;;;;;;;;;;;;;16.86;76.64;100572.91;5060448;28;1617;-58
2021/10/03 20:52:44;;;;;;;;;;;;;;;16.84;77.06;100582.97;5082261;28;1552;-59
2021/10/03 20:55:09;;;;;;;;;;;;;;;16.85;76.63;100587.34;5083283;28;1593;-59
2021/10/03 20:57:35;;;;;;;;;;;;;;;16.84;76.52;100585.66;5083140;28;1675;-58
2021/10/03 21:00:00;;;;;;;;;;;;;;;16.84;76.75;100604.50;5084320;28;1639;-59
2021/10/03 21:02:25;;;;;;;;;;;;;;;16.84;76.65;100601.81;5084839;28;1897;-59
2021/10/03 21:04:50;;;;;;;;;;;;;;;16.84;76.70;100601.81;5094461;28;1635;-58
2021/10/03 21:07:16;;;;;;;;;;;;;;;16.85;76.87;100599.97;5090296;28;1885;-59
2021/10/03 21:09:41;;;;;;;;;;;;;;;16.84;76.59;100599.13;5074702;28;1942;-58
2021/10/03 21:12:06;;;;;;;;;;;;;;;16.85;76.52;100608.03;5075293;28;1060;-58
2021/10/03 21:14:31;;;;;;;;;;;;;;;16.86;76.59;100610.59;5075247;28;969;-59
2021/10/03 21:16:56;;;;;;;;;;;;;;;16.96;76.53;100605.19;5074810;28;1902;-59
2021/10/03 21:19:21;;;;;;;;;;;;;;;16.96;76.39;100606.03;5074768;28;882;-60
2021/10/03 21:21:46;;;;;;;;;;;;;;;16.96;76.43;100611.44;5074409;28;1991;-60
2021/10/03 21:24:11;;;;;;;;;;;;;;;16.96;76.63;100614.13;5085768;28;1496;-59
2021/10/03 21:26:36;;;;;;;;;;;;;;;16.95;76.20;100615.13;5082954;28;1737;-59
2021/10/03 21:29:01;;;;;;;;;;;;;;;16.92;76.58;100618.09;5083577;28;1549;-57
2021/10/03 21:31:26;;;;;;;;;;;;;;;16.97;77.22;100612.28;5095328;28;941;-59
2021/10/03 21:33:52;;;;;;;;;;;;;;;16.98;77.30;100608.59;5083452;28;1706;-58
2021/10/03 21:36:17;;;;;;;;;;;;;;;17.00;77.68;100612.84;5083652;28;1717;-60
2021/10/03 21:38:42;;;;;;;;;;;;;;;17.01;78.42;100613.69;5075726;28;1666;-60
2021/10/03 21:41:07;;;;;;;;;;;;;;;17.00;78.38;100618.22;5082116;28;1963;-61
2021/10/03 21:43:32;;;;;;;;;;;;;;;17.02;78.22;100618.91;5080056;28;1431;-61
2021/10/03 21:45:58;;;;;;;;;;;;;;;17.00;78.16;100617.38;5094394;28;1463;-59
2021/10/03 21:48:23;;;;;;;;;;;;;;;17.00;77.88;100617.38;5094333;28;1410;-57
2021/10/03 21:50:48;;;;;;;;;;;;;;;16.99;77.10;100624.59;5087631;28;1402;-60
2021/10/03 21:53:13;;;;;;;;;;;;;;;16.98;77.77;100624.75;5081956;28;1420;-60
2021/10/03 21:55:38;;;;;;;;;;;;;;;16.97;77.31;100633.81;5081873;28;1380;-60
2021/10/03 21:58:03;;;;;;;;;;;;;;;16.96;77.57;100635.66;5077463;28;1354;-60
2021/10/03 22:00:28;;;;;;;;;;;;;;;16.94;77.45;100632.25;5077852;28;1964;-60
2021/10/03 22:02:53;;;;;;;;;;;;;;;16.93;77.39;100622.47;5079031;28;1777;-60
2021/10/03 22:05:18;;;;;;;;;;;;;;;16.94;77.21;100624.19;5078441;28;1989;-61
2021/10/03 22:07:44;;;;;;;;;;;;;;;16.92;77.36;100636.94;5078750;28;1919;-61
2021/10/03 22:10:09;;;;;;;;;;;;;;;16.91;77.39;100640.63;5078747;28;993;-59
2021/10/03 22:12:34;;;;;;;;;;;;;;;16.92;77.59;100652.25;5078195;28;851;-59
2021/10/03 22:14:59;;;;;;;;;;;;;;;16.90;77.00;100654.22;5077842;28;1759;-59
2021/10/03 22:17:24;;;;;;;;;;;;;;;16.89;77.13;100652.53;5078197;28;2264;-59
2021/10/03 22:19:49;;;;;;;;;;;;;;;16.88;76.84;100642.75;5078111;28;823;-59
2021/10/03 22:22:14;;;;;;;;;;;;;;;16.87;77.13;100643.75;5078625;28;1914;-59
2021/10/03 22:24:39;;;;;;;;;;;;;;;16.86;77.09;100655.50;5077797;28;2058;-59
2021/10/03 22:27:04;;;;;;;;;;;;;;;16.85;76.98;100657.34;5076641;28;1799;-59
2021/10/03 22:29:29;;;;;;;;;;;;;;;16.85;76.80;100665.41;5078056;28;1064;-59
2021/10/03 22:31:54;;;;;;;;;;;;;;;16.84;76.89;100661.03;5078139;28;1000;-59
2021/10/03 22:34:19;;;;;;;;;;;;;;;16.83;76.90;100659.34;5078206;28;1012;-60
2021/10/03 22:36:44;;;;;;;;;;;;;;;16.82;76.85;100660.34;5077363;28;2004;-59
2021/10/03 22:39:10;;;;;;;;;;;;;;;16.83;76.84;100670.13;5077751;28;1017;-60
2021/10/03 22:41:35;;;;;;;;;;;;;;;16.83;76.70;100674.66;5078267;28;1960;-59
2021/10/03 22:44:00;;;;;;;;;;;;;;;16.82;76.69;100673.81;5077954;28;1883;-59
2021/10/03 22:46:25;;;;;;;;;;;;;;;16.82;76.62;100678.34;5077489;28;961;-59
2021/10/03 22:48:50;;;;;;;;;;;;;;;16.82;76.50;100689.94;5077834;28;937;-60
2021/10/03 22:51:15;;;;;;;;;;;;;;;16.81;76.71;100690.94;5077666;28;854;-60
2021/10/03 22:53:40;;;;;;;;;;;;;;;16.81;76.52;100682.03;5077732;28;1009;-61
2021/10/03 22:56:05;;;;;;;;;;;;;;;16.80;76.64;100691.94;5077259;28;1833;-60
2021/10/03 22:58:30;;;;;;;;;;;;;;;16.79;76.52;100692.94;5077825;28;725;-60
2021/10/03 23:00:55;;;;;;;;;;;;;;;16.80;76.52;100683.84;5077754;28;1906;-61
2021/10/03 23:03:20;;;;;;;;;;;;;;;16.79;76.61;100692.94;5077697;28;984;-61
2021/10/03 23:05:45;;;;;;;;;;;;;;;16.79;76.59;100695.63;5077215;28;1894;-61
2021/10/03 23:08:10;;;;;;;;;;;;;;;16.78;76.68;100698.44;5077483;28;1982;-60
2021/10/03 23:10:35;;;;;;;;;;;;;;;16.77;76.41;100694.91;5077394;28;897;-61
2021/10/03 23:13:01;;;;;;;;;;;;;;;16.77;76.55;100700.28;5077000;28;1021;-61
2021/10/03 23:15:27;;;;;;;;;;;;;;;16.75;76.05;100704.97;5076915;28;2004;-61
2021/10/03 23:17:52;;;;;;;;;;;;;;;16.76;76.23;100698.59;5077324;28;1866;-61
2021/10/03 23:20:17;;;;;;;;;;;;;;;16.76;76.49;100711.19;5077244;28;1982;-59